<?xml version="1.0" encoding="UTF-8" standalone="no" ?>
<gpx xmlns="http://www.topografix.com/GPX/1/1" xmlns:xsi="http://www.w3.org/2001/XMLSchema-instance" xsi:schemaLocation="http://www.topografix.com/GPX/1/1 http://www.topografix.com/GPX/1/1/gpx.xsd" version="1.1" creator="VisuGPX - https://www.visugpx.com">
  <metadata>
    <name>ARQUES LA SEYNE SUR MER 1497 KM</name>
    <desc><![CDATA[Rando de Arques dans le Pas de Calais jusque La Seyne sur Mer dans le Var, 1497 km]]></desc>
  </metadata>
  <trk>
    <name><![CDATA[31 - ALUZE SASSANGY 21.7 KM]]></name>
    <extensions>
      <line xmlns="http://www.topografix.com/GPX/gpx_style/0/2">
        <color>FF00FF</color>
        <width>4</width>
      </line>
    </extensions>
    <trkseg>
      <trkpt lat="46.8479" lon="4.68656">
        <ele>382</ele>
        <time>2021-11-15T12:15:54+01:00</time>
      </trkpt>
      <trkpt lat="46.84774" lon="4.68653">
        <ele>382</ele>
        <time>2021-11-15T12:15:59+01:00</time>
      </trkpt>
      <trkpt lat="46.84757" lon="4.6869">
        <ele>380</ele>
        <time>2021-11-15T12:16:04+01:00</time>
      </trkpt>
      <trkpt lat="46.84756" lon="4.6878">
        <ele>372</ele>
        <time>2021-11-15T12:16:09+01:00</time>
      </trkpt>
      <trkpt lat="46.84684" lon="4.68771">
        <ele>367</ele>
        <time>2021-11-15T12:16:14+01:00</time>
      </trkpt>
      <trkpt lat="46.84647" lon="4.68819">
        <ele>359</ele>
        <time>2021-11-15T12:16:19+01:00</time>
      </trkpt>
      <trkpt lat="46.84596" lon="4.68933">
        <ele>341</ele>
        <time>2021-11-15T12:16:24+01:00</time>
      </trkpt>
      <trkpt lat="46.84625" lon="4.6906">
        <ele>327</ele>
        <time>2021-11-15T12:16:29+01:00</time>
      </trkpt>
      <trkpt lat="46.84581" lon="4.691">
        <ele>325</ele>
        <time>2021-11-15T12:16:34+01:00</time>
      </trkpt>
      <trkpt lat="46.84542" lon="4.69123">
        <ele>319</ele>
        <time>2021-11-15T12:16:39+01:00</time>
      </trkpt>
      <trkpt lat="46.84481" lon="4.69105">
        <ele>314</ele>
        <time>2021-11-15T12:16:44+01:00</time>
      </trkpt>
      <trkpt lat="46.84399" lon="4.69121">
        <ele>303</ele>
        <time>2021-11-15T12:16:49+01:00</time>
      </trkpt>
      <trkpt lat="46.84337" lon="4.69171">
        <ele>295</ele>
        <time>2021-11-15T12:16:54+01:00</time>
      </trkpt>
      <trkpt lat="46.84317" lon="4.69217">
        <ele>291</ele>
        <time>2021-11-15T12:16:59+01:00</time>
      </trkpt>
      <trkpt lat="46.84304" lon="4.69266">
        <ele>289</ele>
        <time>2021-11-15T12:17:04+01:00</time>
      </trkpt>
      <trkpt lat="46.8427" lon="4.69277">
        <ele>289</ele>
        <time>2021-11-15T12:17:09+01:00</time>
      </trkpt>
      <trkpt lat="46.84137" lon="4.69242">
        <ele>299</ele>
        <time>2021-11-15T12:17:14+01:00</time>
      </trkpt>
      <trkpt lat="46.84036" lon="4.69265">
        <ele>310</ele>
        <time>2021-11-15T12:17:19+01:00</time>
      </trkpt>
      <trkpt lat="46.83951" lon="4.69284">
        <ele>319</ele>
        <time>2021-11-15T12:17:24+01:00</time>
      </trkpt>
      <trkpt lat="46.83882" lon="4.69347">
        <ele>324</ele>
        <time>2021-11-15T12:17:29+01:00</time>
      </trkpt>
      <trkpt lat="46.83745" lon="4.69512">
        <ele>315</ele>
        <time>2021-11-15T12:17:34+01:00</time>
      </trkpt>
      <trkpt lat="46.8371" lon="4.69583">
        <ele>308</ele>
        <time>2021-11-15T12:17:39+01:00</time>
      </trkpt>
      <trkpt lat="46.83697" lon="4.69637">
        <ele>303</ele>
        <time>2021-11-15T12:17:44+01:00</time>
      </trkpt>
      <trkpt lat="46.83646" lon="4.69692">
        <ele>290</ele>
        <time>2021-11-15T12:17:49+01:00</time>
      </trkpt>
      <trkpt lat="46.83609" lon="4.69756">
        <ele>282</ele>
        <time>2021-11-15T12:17:54+01:00</time>
      </trkpt>
      <trkpt lat="46.83456" lon="4.69837">
        <ele>277</ele>
        <time>2021-11-15T12:17:59+01:00</time>
      </trkpt>
      <trkpt lat="46.83484" lon="4.69944">
        <ele>275</ele>
        <time>2021-11-15T12:18:04+01:00</time>
      </trkpt>
      <trkpt lat="46.83466" lon="4.69929">
        <ele>278</ele>
        <time>2021-11-15T12:18:09+01:00</time>
      </trkpt>
      <trkpt lat="46.83421" lon="4.6981">
        <ele>280</ele>
        <time>2021-11-15T12:18:14+01:00</time>
      </trkpt>
      <trkpt lat="46.83315" lon="4.6967">
        <ele>280</ele>
        <time>2021-11-15T12:18:19+01:00</time>
      </trkpt>
      <trkpt lat="46.83283" lon="4.69752">
        <ele>289</ele>
        <time>2021-11-15T12:18:24+01:00</time>
      </trkpt>
      <trkpt lat="46.83251" lon="4.69899">
        <ele>297</ele>
        <time>2021-11-15T12:18:29+01:00</time>
      </trkpt>
      <trkpt lat="46.83055" lon="4.70377">
        <ele>322</ele>
        <time>2021-11-15T12:18:34+01:00</time>
      </trkpt>
      <trkpt lat="46.8298" lon="4.70536">
        <ele>329</ele>
        <time>2021-11-15T12:18:39+01:00</time>
      </trkpt>
      <trkpt lat="46.82948" lon="4.70649">
        <ele>327</ele>
        <time>2021-11-15T12:18:44+01:00</time>
      </trkpt>
      <trkpt lat="46.82789" lon="4.70664">
        <ele>331</ele>
        <time>2021-11-15T12:18:49+01:00</time>
      </trkpt>
      <trkpt lat="46.82736" lon="4.70724">
        <ele>331</ele>
        <time>2021-11-15T12:18:54+01:00</time>
      </trkpt>
      <trkpt lat="46.8266" lon="4.70862">
        <ele>328</ele>
        <time>2021-11-15T12:18:59+01:00</time>
      </trkpt>
      <trkpt lat="46.82561" lon="4.70932">
        <ele>320</ele>
        <time>2021-11-15T12:19:04+01:00</time>
      </trkpt>
      <trkpt lat="46.82461" lon="4.71047">
        <ele>315</ele>
        <time>2021-11-15T12:19:09+01:00</time>
      </trkpt>
      <trkpt lat="46.82405" lon="4.7117">
        <ele>321</ele>
        <time>2021-11-15T12:19:14+01:00</time>
      </trkpt>
      <trkpt lat="46.82383" lon="4.71291">
        <ele>307</ele>
        <time>2021-11-15T12:19:19+01:00</time>
      </trkpt>
      <trkpt lat="46.82198" lon="4.7123">
        <ele>294</ele>
        <time>2021-11-15T12:19:24+01:00</time>
      </trkpt>
      <trkpt lat="46.82005" lon="4.71181">
        <ele>288</ele>
        <time>2021-11-15T12:19:29+01:00</time>
      </trkpt>
      <trkpt lat="46.81896" lon="4.71093">
        <ele>289</ele>
        <time>2021-11-15T12:19:34+01:00</time>
      </trkpt>
      <trkpt lat="46.81717" lon="4.71017">
        <ele>275</ele>
        <time>2021-11-15T12:19:39+01:00</time>
      </trkpt>
      <trkpt lat="46.81614" lon="4.71045">
        <ele>262</ele>
        <time>2021-11-15T12:19:44+01:00</time>
      </trkpt>
      <trkpt lat="46.81585" lon="4.71088">
        <ele>257</ele>
        <time>2021-11-15T12:19:49+01:00</time>
      </trkpt>
      <trkpt lat="46.81554" lon="4.71176">
        <ele>253</ele>
        <time>2021-11-15T12:19:54+01:00</time>
      </trkpt>
      <trkpt lat="46.81581" lon="4.71243">
        <ele>251</ele>
        <time>2021-11-15T12:19:59+01:00</time>
      </trkpt>
      <trkpt lat="46.81552" lon="4.71311">
        <ele>247</ele>
        <time>2021-11-15T12:20:04+01:00</time>
      </trkpt>
      <trkpt lat="46.81527" lon="4.71398">
        <ele>242</ele>
        <time>2021-11-15T12:20:09+01:00</time>
      </trkpt>
      <trkpt lat="46.81548" lon="4.71408">
        <ele>243</ele>
        <time>2021-11-15T12:20:14+01:00</time>
      </trkpt>
      <trkpt lat="46.81501" lon="4.71483">
        <ele>239</ele>
        <time>2021-11-15T12:20:19+01:00</time>
      </trkpt>
      <trkpt lat="46.81452" lon="4.71581">
        <ele>234</ele>
        <time>2021-11-15T12:20:24+01:00</time>
      </trkpt>
      <trkpt lat="46.81315" lon="4.71727">
        <ele>230</ele>
        <time>2021-11-15T12:20:29+01:00</time>
      </trkpt>
      <trkpt lat="46.81193" lon="4.71834">
        <ele>221</ele>
        <time>2021-11-15T12:20:34+01:00</time>
      </trkpt>
      <trkpt lat="46.81193" lon="4.71905">
        <ele>218</ele>
        <time>2021-11-15T12:20:39+01:00</time>
      </trkpt>
      <trkpt lat="46.81094" lon="4.71982">
        <ele>218</ele>
        <time>2021-11-15T12:20:44+01:00</time>
      </trkpt>
      <trkpt lat="46.81098" lon="4.72067">
        <ele>220</ele>
        <time>2021-11-15T12:20:49+01:00</time>
      </trkpt>
      <trkpt lat="46.81044" lon="4.7201">
        <ele>224</ele>
        <time>2021-11-15T12:20:54+01:00</time>
      </trkpt>
      <trkpt lat="46.80978" lon="4.72009">
        <ele>232</ele>
        <time>2021-11-15T12:20:59+01:00</time>
      </trkpt>
      <trkpt lat="46.80848" lon="4.71927">
        <ele>240</ele>
        <time>2021-11-15T12:21:04+01:00</time>
      </trkpt>
      <trkpt lat="46.80524" lon="4.71776">
        <ele>269</ele>
        <time>2021-11-15T12:21:09+01:00</time>
      </trkpt>
      <trkpt lat="46.80472" lon="4.71751">
        <ele>276</ele>
        <time>2021-11-15T12:21:14+01:00</time>
      </trkpt>
      <trkpt lat="46.80371" lon="4.71668">
        <ele>286</ele>
        <time>2021-11-15T12:21:19+01:00</time>
      </trkpt>
      <trkpt lat="46.80136" lon="4.71642">
        <ele>308</ele>
        <time>2021-11-15T12:21:24+01:00</time>
      </trkpt>
      <trkpt lat="46.79861" lon="4.71565">
        <ele>343</ele>
        <time>2021-11-15T12:21:29+01:00</time>
      </trkpt>
      <trkpt lat="46.79777" lon="4.71565">
        <ele>352</ele>
        <time>2021-11-15T12:21:34+01:00</time>
      </trkpt>
      <trkpt lat="46.79675" lon="4.71541">
        <ele>353</ele>
        <time>2021-11-15T12:21:39+01:00</time>
      </trkpt>
      <trkpt lat="46.79695" lon="4.71367">
        <ele>361</ele>
        <time>2021-11-15T12:21:44+01:00</time>
      </trkpt>
      <trkpt lat="46.79627" lon="4.71319">
        <ele>366</ele>
        <time>2021-11-15T12:21:49+01:00</time>
      </trkpt>
      <trkpt lat="46.79574" lon="4.71245">
        <ele>372</ele>
        <time>2021-11-15T12:21:54+01:00</time>
      </trkpt>
      <trkpt lat="46.79534" lon="4.71149">
        <ele>377</ele>
        <time>2021-11-15T12:21:59+01:00</time>
      </trkpt>
      <trkpt lat="46.79513" lon="4.71054">
        <ele>380</ele>
        <time>2021-11-15T12:22:04+01:00</time>
      </trkpt>
      <trkpt lat="46.79547" lon="4.70971">
        <ele>379</ele>
        <time>2021-11-15T12:22:09+01:00</time>
      </trkpt>
      <trkpt lat="46.79586" lon="4.70918">
        <ele>378</ele>
        <time>2021-11-15T12:22:14+01:00</time>
      </trkpt>
      <trkpt lat="46.79523" lon="4.70857">
        <ele>379</ele>
        <time>2021-11-15T12:22:19+01:00</time>
      </trkpt>
      <trkpt lat="46.79317" lon="4.70779">
        <ele>396</ele>
        <time>2021-11-15T12:22:24+01:00</time>
      </trkpt>
      <trkpt lat="46.79132" lon="4.70659">
        <ele>408</ele>
        <time>2021-11-15T12:22:29+01:00</time>
      </trkpt>
      <trkpt lat="46.79037" lon="4.70635">
        <ele>413</ele>
        <time>2021-11-15T12:22:34+01:00</time>
      </trkpt>
      <trkpt lat="46.7896" lon="4.70605">
        <ele>417</ele>
        <time>2021-11-15T12:22:39+01:00</time>
      </trkpt>
      <trkpt lat="46.78869" lon="4.7064">
        <ele>423</ele>
        <time>2021-11-15T12:22:44+01:00</time>
      </trkpt>
      <trkpt lat="46.78765" lon="4.70727">
        <ele>429</ele>
        <time>2021-11-15T12:22:49+01:00</time>
      </trkpt>
      <trkpt lat="46.78685" lon="4.70833">
        <ele>434</ele>
        <time>2021-11-15T12:22:54+01:00</time>
      </trkpt>
      <trkpt lat="46.78645" lon="4.70868">
        <ele>434</ele>
        <time>2021-11-15T12:22:59+01:00</time>
      </trkpt>
      <trkpt lat="46.78564" lon="4.70886">
        <ele>432</ele>
        <time>2021-11-15T12:23:04+01:00</time>
      </trkpt>
      <trkpt lat="46.78431" lon="4.70903">
        <ele>422</ele>
        <time>2021-11-15T12:23:09+01:00</time>
      </trkpt>
      <trkpt lat="46.78378" lon="4.70842">
        <ele>413</ele>
        <time>2021-11-15T12:23:14+01:00</time>
      </trkpt>
      <trkpt lat="46.78318" lon="4.70735">
        <ele>406</ele>
        <time>2021-11-15T12:23:19+01:00</time>
      </trkpt>
      <trkpt lat="46.78266" lon="4.70685">
        <ele>401</ele>
        <time>2021-11-15T12:23:24+01:00</time>
      </trkpt>
      <trkpt lat="46.78223" lon="4.70666">
        <ele>395</ele>
        <time>2021-11-15T12:23:29+01:00</time>
      </trkpt>
      <trkpt lat="46.78184" lon="4.70631">
        <ele>392</ele>
        <time>2021-11-15T12:23:34+01:00</time>
      </trkpt>
      <trkpt lat="46.7813" lon="4.70631">
        <ele>383</ele>
        <time>2021-11-15T12:23:39+01:00</time>
      </trkpt>
      <trkpt lat="46.78052" lon="4.70642">
        <ele>372</ele>
        <time>2021-11-15T12:23:44+01:00</time>
      </trkpt>
      <trkpt lat="46.7792" lon="4.70559">
        <ele>376</ele>
        <time>2021-11-15T12:23:49+01:00</time>
      </trkpt>
      <trkpt lat="46.77858" lon="4.7057">
        <ele>373</ele>
        <time>2021-11-15T12:23:54+01:00</time>
      </trkpt>
      <trkpt lat="46.77774" lon="4.70572">
        <ele>368</ele>
        <time>2021-11-15T12:23:59+01:00</time>
      </trkpt>
      <trkpt lat="46.77753" lon="4.70594">
        <ele>366</ele>
        <time>2021-11-15T12:24:04+01:00</time>
      </trkpt>
      <trkpt lat="46.77703" lon="4.70602">
        <ele>365</ele>
        <time>2021-11-15T12:24:09+01:00</time>
      </trkpt>
      <trkpt lat="46.77583" lon="4.70694">
        <ele>362</ele>
        <time>2021-11-15T12:24:14+01:00</time>
      </trkpt>
      <trkpt lat="46.7749" lon="4.70722">
        <ele>348</ele>
        <time>2021-11-15T12:24:19+01:00</time>
      </trkpt>
      <trkpt lat="46.77408" lon="4.70751">
        <ele>329</ele>
        <time>2021-11-15T12:24:24+01:00</time>
      </trkpt>
      <trkpt lat="46.77342" lon="4.70718">
        <ele>314</ele>
        <time>2021-11-15T12:24:29+01:00</time>
      </trkpt>
      <trkpt lat="46.77327" lon="4.70579">
        <ele>305</ele>
        <time>2021-11-15T12:24:34+01:00</time>
      </trkpt>
      <trkpt lat="46.77298" lon="4.70542">
        <ele>297</ele>
        <time>2021-11-15T12:24:39+01:00</time>
      </trkpt>
      <trkpt lat="46.77306" lon="4.70431">
        <ele>294</ele>
        <time>2021-11-15T12:24:44+01:00</time>
      </trkpt>
      <trkpt lat="46.77245" lon="4.70271">
        <ele>282</ele>
        <time>2021-11-15T12:24:49+01:00</time>
      </trkpt>
      <trkpt lat="46.7723" lon="4.70176">
        <ele>279</ele>
        <time>2021-11-15T12:24:54+01:00</time>
      </trkpt>
      <trkpt lat="46.77247" lon="4.69751">
        <ele>271</ele>
        <time>2021-11-15T12:24:59+01:00</time>
      </trkpt>
      <trkpt lat="46.77194" lon="4.69703">
        <ele>268</ele>
        <time>2021-11-15T12:25:04+01:00</time>
      </trkpt>
      <trkpt lat="46.7722" lon="4.69459">
        <ele>274</ele>
        <time>2021-11-15T12:25:09+01:00</time>
      </trkpt>
      <trkpt lat="46.77202" lon="4.69396">
        <ele>276</ele>
        <time>2021-11-15T12:25:14+01:00</time>
      </trkpt>
      <trkpt lat="46.77102" lon="4.69376">
        <ele>284</ele>
        <time>2021-11-15T12:25:19+01:00</time>
      </trkpt>
      <trkpt lat="46.77071" lon="4.69461">
        <ele>282</ele>
        <time>2021-11-15T12:25:24+01:00</time>
      </trkpt>
      <trkpt lat="46.76923" lon="4.69422">
        <ele>296</ele>
        <time>2021-11-15T12:25:29+01:00</time>
      </trkpt>
      <trkpt lat="46.76825" lon="4.69424">
        <ele>312</ele>
        <time>2021-11-15T12:25:34+01:00</time>
      </trkpt>
      <trkpt lat="46.76793" lon="4.69391">
        <ele>320</ele>
        <time>2021-11-15T12:25:39+01:00</time>
      </trkpt>
      <trkpt lat="46.76713" lon="4.69443">
        <ele>343</ele>
        <time>2021-11-15T12:25:44+01:00</time>
      </trkpt>
      <trkpt lat="46.76685" lon="4.69504">
        <ele>351</ele>
        <time>2021-11-15T12:25:49+01:00</time>
      </trkpt>
      <trkpt lat="46.7668" lon="4.6969">
        <ele>355</ele>
        <time>2021-11-15T12:25:54+01:00</time>
      </trkpt>
      <trkpt lat="46.76664" lon="4.69762">
        <ele>358</ele>
        <time>2021-11-15T12:25:59+01:00</time>
      </trkpt>
      <trkpt lat="46.76626" lon="4.69744">
        <ele>362</ele>
        <time>2021-11-15T12:26:04+01:00</time>
      </trkpt>
      <trkpt lat="46.76423" lon="4.69424">
        <ele>396</ele>
        <time>2021-11-15T12:26:09+01:00</time>
      </trkpt>
      <trkpt lat="46.76369" lon="4.69424">
        <ele>391</ele>
        <time>2021-11-15T12:26:14+01:00</time>
      </trkpt>
      <trkpt lat="46.76321" lon="4.69452">
        <ele>383</ele>
        <time>2021-11-15T12:26:19+01:00</time>
      </trkpt>
      <trkpt lat="46.76132" lon="4.69441">
        <ele>365</ele>
        <time>2021-11-15T12:26:24+01:00</time>
      </trkpt>
      <trkpt lat="46.76075" lon="4.69452">
        <ele>355</ele>
        <time>2021-11-15T12:26:29+01:00</time>
      </trkpt>
      <trkpt lat="46.76012" lon="4.69395">
        <ele>344</ele>
        <time>2021-11-15T12:26:34+01:00</time>
      </trkpt>
      <trkpt lat="46.75946" lon="4.69239">
        <ele>330</ele>
        <time>2021-11-15T12:26:39+01:00</time>
      </trkpt>
      <trkpt lat="46.75921" lon="4.69191">
        <ele>323</ele>
        <time>2021-11-15T12:26:44+01:00</time>
      </trkpt>
      <trkpt lat="46.75893" lon="4.68993">
        <ele>312</ele>
        <time>2021-11-15T12:26:49+01:00</time>
      </trkpt>
      <trkpt lat="46.75855" lon="4.68877">
        <ele>302</ele>
        <time>2021-11-15T12:26:54+01:00</time>
      </trkpt>
      <trkpt lat="46.75767" lon="4.68788">
        <ele>297</ele>
        <time>2021-11-15T12:26:59+01:00</time>
      </trkpt>
      <trkpt lat="46.75736" lon="4.6881">
        <ele>296</ele>
        <time>2021-11-15T12:27:04+01:00</time>
      </trkpt>
      <trkpt lat="46.75607" lon="4.68746">
        <ele>295</ele>
        <time>2021-11-15T12:27:09+01:00</time>
      </trkpt>
      <trkpt lat="46.75509" lon="4.68725">
        <ele>282</ele>
        <time>2021-11-15T12:27:14+01:00</time>
      </trkpt>
      <trkpt lat="46.7549" lon="4.68657">
        <ele>277</ele>
        <time>2021-11-15T12:27:19+01:00</time>
      </trkpt>
      <trkpt lat="46.75481" lon="4.68602">
        <ele>274</ele>
        <time>2021-11-15T12:27:24+01:00</time>
      </trkpt>
      <trkpt lat="46.75401" lon="4.68626">
        <ele>266</ele>
        <time>2021-11-15T12:27:29+01:00</time>
      </trkpt>
      <trkpt lat="46.75286" lon="4.68644">
        <ele>258</ele>
        <time>2021-11-15T12:27:34+01:00</time>
      </trkpt>
      <trkpt lat="46.75146" lon="4.68546">
        <ele>268</ele>
        <time>2021-11-15T12:27:39+01:00</time>
      </trkpt>
      <trkpt lat="46.75115" lon="4.68609">
        <ele>266</ele>
        <time>2021-11-15T12:27:44+01:00</time>
      </trkpt>
      <trkpt lat="46.74994" lon="4.68592">
        <ele>269</ele>
        <time>2021-11-15T12:27:49+01:00</time>
      </trkpt>
      <trkpt lat="46.74934" lon="4.68557">
        <ele>270</ele>
        <time>2021-11-15T12:27:54+01:00</time>
      </trkpt>
      <trkpt lat="46.74873" lon="4.68469">
        <ele>272</ele>
        <time>2021-11-15T12:27:59+01:00</time>
      </trkpt>
      <trkpt lat="46.74894" lon="4.68439">
        <ele>275</ele>
        <time>2021-11-15T12:28:04+01:00</time>
      </trkpt>
      <trkpt lat="46.74812" lon="4.6828">
        <ele>276</ele>
        <time>2021-11-15T12:28:09+01:00</time>
      </trkpt>
      <trkpt lat="46.74807" lon="4.68134">
        <ele>279</ele>
        <time>2021-11-15T12:28:14+01:00</time>
      </trkpt>
      <trkpt lat="46.74869" lon="4.67997">
        <ele>288</ele>
        <time>2021-11-15T12:28:19+01:00</time>
      </trkpt>
      <trkpt lat="46.74858" lon="4.67914">
        <ele>292</ele>
        <time>2021-11-15T12:28:24+01:00</time>
      </trkpt>
      <trkpt lat="46.74714" lon="4.67426">
        <ele>313</ele>
        <time>2021-11-15T12:28:29+01:00</time>
      </trkpt>
      <trkpt lat="46.74681" lon="4.67354">
        <ele>319</ele>
        <time>2021-11-15T12:28:34+01:00</time>
      </trkpt>
      <trkpt lat="46.74649" lon="4.67213">
        <ele>333</ele>
        <time>2021-11-15T12:28:39+01:00</time>
      </trkpt>
      <trkpt lat="46.74643" lon="4.67165">
        <ele>335</ele>
        <time>2021-11-15T12:28:44+01:00</time>
      </trkpt>
      <trkpt lat="46.74672" lon="4.67125">
        <ele>333</ele>
        <time>2021-11-15T12:28:49+01:00</time>
      </trkpt>
      <trkpt lat="46.74564" lon="4.66938">
        <ele>335</ele>
        <time>2021-11-15T12:28:54+01:00</time>
      </trkpt>
      <trkpt lat="46.74586" lon="4.66423">
        <ele>318</ele>
        <time>2021-11-15T12:28:59+01:00</time>
      </trkpt>
      <trkpt lat="46.74537" lon="4.66329">
        <ele>317</ele>
        <time>2021-11-15T12:29:04+01:00</time>
      </trkpt>
      <trkpt lat="46.74501" lon="4.6625">
        <ele>319</ele>
        <time>2021-11-15T12:29:09+01:00</time>
      </trkpt>
      <trkpt lat="46.74483" lon="4.66012">
        <ele>318</ele>
        <time>2021-11-15T12:29:14+01:00</time>
      </trkpt>
      <trkpt lat="46.74411" lon="4.65995">
        <ele>324</ele>
        <time>2021-11-15T12:29:19+01:00</time>
      </trkpt>
      <trkpt lat="46.74404" lon="4.6582">
        <ele>330</ele>
        <time>2021-11-15T12:29:24+01:00</time>
      </trkpt>
      <trkpt lat="46.74379" lon="4.65744">
        <ele>338</ele>
        <time>2021-11-15T12:29:29+01:00</time>
      </trkpt>
      <trkpt lat="46.74352" lon="4.65564">
        <ele>349</ele>
        <time>2021-11-15T12:29:34+01:00</time>
      </trkpt>
      <trkpt lat="46.74298" lon="4.65526">
        <ele>354</ele>
        <time>2021-11-15T12:29:39+01:00</time>
      </trkpt>
      <trkpt lat="46.74209" lon="4.65443">
        <ele>357</ele>
        <time>2021-11-15T12:29:44+01:00</time>
      </trkpt>
      <trkpt lat="46.74129" lon="4.65402">
        <ele>360</ele>
        <time>2021-11-15T12:29:49+01:00</time>
      </trkpt>
      <trkpt lat="46.73985" lon="4.6526">
        <ele>359</ele>
        <time>2021-11-15T12:29:54+01:00</time>
      </trkpt>
      <trkpt lat="46.73912" lon="4.6524">
        <ele>363</ele>
        <time>2021-11-15T12:29:59+01:00</time>
      </trkpt>
      <trkpt lat="46.73827" lon="4.65303">
        <ele>375</ele>
        <time>2021-11-15T12:30:04+01:00</time>
      </trkpt>
      <trkpt lat="46.7382" lon="4.6524">
        <ele>369</ele>
        <time>2021-11-15T12:30:09+01:00</time>
      </trkpt>
      <trkpt lat="46.73748" lon="4.65124">
        <ele>360</ele>
        <time>2021-11-15T12:30:14+01:00</time>
      </trkpt>
      <trkpt lat="46.73741" lon="4.6505">
        <ele>354</ele>
        <time>2021-11-15T12:30:19+01:00</time>
      </trkpt>
      <trkpt lat="46.73595" lon="4.6488">
        <ele>345</ele>
        <time>2021-11-15T12:30:24+01:00</time>
      </trkpt>
      <trkpt lat="46.73459" lon="4.64645">
        <ele>341</ele>
        <time>2021-11-15T12:30:29+01:00</time>
      </trkpt>
      <trkpt lat="46.73296" lon="4.64501">
        <ele>343</ele>
        <time>2021-11-15T12:30:34+01:00</time>
      </trkpt>
      <trkpt lat="46.73105" lon="4.64404">
        <ele>330</ele>
        <time>2021-11-15T12:30:39+01:00</time>
      </trkpt>
      <trkpt lat="46.72994" lon="4.64455">
        <ele>327</ele>
        <time>2021-11-15T12:30:44+01:00</time>
      </trkpt>
      <trkpt lat="46.7294" lon="4.64556">
        <ele>331</ele>
        <time>2021-11-15T12:30:49+01:00</time>
      </trkpt>
      <trkpt lat="46.72884" lon="4.64566">
        <ele>328</ele>
        <time>2021-11-15T12:30:54+01:00</time>
      </trkpt>
      <trkpt lat="46.72835" lon="4.6454">
        <ele>326</ele>
        <time>2021-11-15T12:30:59+01:00</time>
      </trkpt>
      <trkpt lat="46.72826" lon="4.64524">
        <ele>326</ele>
        <time>2021-11-15T12:31:04+01:00</time>
      </trkpt>
      <trkpt lat="46.7284" lon="4.64423">
        <ele>321</ele>
        <time>2021-11-15T12:31:09+01:00</time>
      </trkpt>
      <trkpt lat="46.72789" lon="4.64179">
        <ele>325</ele>
        <time>2021-11-15T12:31:14+01:00</time>
      </trkpt>
      <trkpt lat="46.72739" lon="4.64058">
        <ele>326</ele>
        <time>2021-11-15T12:31:19+01:00</time>
      </trkpt>
      <trkpt lat="46.72663" lon="4.63951">
        <ele>329</ele>
        <time>2021-11-15T12:31:24+01:00</time>
      </trkpt>
      <trkpt lat="46.72584" lon="4.63904">
        <ele>336</ele>
        <time>2021-11-15T12:31:29+01:00</time>
      </trkpt>
      <trkpt lat="46.72489" lon="4.63792">
        <ele>335</ele>
        <time>2021-11-15T12:31:34+01:00</time>
      </trkpt>
      <trkpt lat="46.72381" lon="4.63719">
        <ele>342</ele>
        <time>2021-11-15T12:31:39+01:00</time>
      </trkpt>
      <trkpt lat="46.72335" lon="4.63715">
        <ele>346</ele>
        <time>2021-11-15T12:31:44+01:00</time>
      </trkpt>
      <trkpt lat="46.72289" lon="4.63737">
        <ele>350</ele>
        <time>2021-11-15T12:31:49+01:00</time>
      </trkpt>
      <trkpt lat="46.72199" lon="4.63813">
        <ele>350</ele>
        <time>2021-11-15T12:31:54+01:00</time>
      </trkpt>
      <trkpt lat="46.72137" lon="4.63845">
        <ele>348</ele>
        <time>2021-11-15T12:31:59+01:00</time>
      </trkpt>
      <trkpt lat="46.72079" lon="4.63893">
        <ele>345</ele>
        <time>2021-11-15T12:32:04+01:00</time>
      </trkpt>
      <trkpt lat="46.71993" lon="4.63811">
        <ele>334</ele>
        <time>2021-11-15T12:32:09+01:00</time>
      </trkpt>
      <trkpt lat="46.71926" lon="4.63763">
        <ele>328</ele>
        <time>2021-11-15T12:32:14+01:00</time>
      </trkpt>
      <trkpt lat="46.71902" lon="4.6372">
        <ele>325</ele>
        <time>2021-11-15T12:32:19+01:00</time>
      </trkpt>
      <trkpt lat="46.71873" lon="4.6371">
        <ele>323</ele>
        <time>2021-11-15T12:32:24+01:00</time>
      </trkpt>
    </trkseg>
  </trk>
</gpx>